createdAt,value
2019-05-10T00:00:34.972Z,1.70
2019-05-10T00:03:21.967Z,1.63
2019-05-10T00:06:08.873Z,1.33
2019-05-10T00:08:45.634Z,1.30
2019-05-10T00:11:29.339Z,1.63
2019-05-10T00:14:12.340Z,1.80
2019-05-10T00:16:41.120Z,1.70
2019-05-10T00:19:10.132Z,1.53
2019-05-10T00:21:39.269Z,1.47
2019-05-10T00:24:08.102Z,2.00
2019-05-10T00:26:36.877Z,1.63
2019-05-10T00:29:05.881Z,1.93
2019-05-10T00:31:34.647Z,1.97
2019-05-10T00:34:03.410Z,1.70
2019-05-10T00:36:32.482Z,2.00
2019-05-10T00:39:01.611Z,1.90
2019-05-10T00:41:30.771Z,1.90
2019-05-10T00:43:59.867Z,2.03
2019-05-10T00:46:28.640Z,2.10
2019-05-10T00:48:57.408Z,2.10
2019-05-10T00:51:26.162Z,1.90
2019-05-10T00:53:54.917Z,2.20
2019-05-10T00:56:24.110Z,1.93
2019-05-10T00:58:52.950Z,1.67
2019-05-10T01:01:21.886Z,2.33
2019-05-10T01:03:50.756Z,2.20
2019-05-10T01:06:19.777Z,2.20
2019-05-10T01:08:48.527Z,2.47
2019-05-10T01:11:17.291Z,2.10
2019-05-10T01:13:46.044Z,2.03
2019-05-10T01:16:14.839Z,2.40
2019-05-10T01:18:43.589Z,2.00
2019-05-10T01:21:12.660Z,2.23
2019-05-10T01:23:41.487Z,2.17
2019-05-10T01:26:10.275Z,2.10
2019-05-10T01:28:39.111Z,2.27
2019-05-10T01:31:08.989Z,2.40
2019-05-10T01:33:37.835Z,2.43
2019-05-10T01:36:06.603Z,2.77
2019-05-10T01:38:35.658Z,2.67
2019-05-10T01:41:04.436Z,2.33
2019-05-10T01:43:33.548Z,2.30
2019-05-10T01:46:02.338Z,2.47
2019-05-10T01:48:31.342Z,2.27
2019-05-10T01:51:00.633Z,2.57
2019-05-10T01:53:29.721Z,2.60
2019-05-10T01:55:58.823Z,2.50
2019-05-10T01:58:27.586Z,2.80
2019-05-10T02:00:56.367Z,2.53
2019-05-10T02:03:25.202Z,3.10
2019-05-10T02:05:53.979Z,2.90
2019-05-10T02:08:22.731Z,3.00
2019-05-10T02:10:51.852Z,3.03
2019-05-10T02:13:20.615Z,3.13
2019-05-10T02:15:49.737Z,3.10
2019-05-10T02:18:18.587Z,3.60
2019-05-10T02:20:47.919Z,3.87
2019-05-10T02:23:16.700Z,4.00
2019-05-10T02:25:45.477Z,4.17
2019-05-10T02:28:14.241Z,3.73
2019-05-10T02:30:43.093Z,4.10
2019-05-10T02:33:11.864Z,4.73
2019-05-10T02:35:40.963Z,5.77
2019-05-10T02:38:10.064Z,5.60
2019-05-10T02:40:38.831Z,5.80
2019-05-10T02:43:07.624Z,6.60
2019-05-10T02:45:36.571Z,6.53
2019-05-10T02:48:05.947Z,6.43
2019-05-10T02:50:34.790Z,6.83
2019-05-10T02:53:03.818Z,7.07
2019-05-10T02:55:33.886Z,7.20
2019-05-10T02:58:02.997Z,7.50
2019-05-10T03:00:35.085Z,7.83
2019-05-10T03:03:06.493Z,7.30
2019-05-10T03:05:36.943Z,7.20
2019-05-10T03:08:05.870Z,8.83
2019-05-10T03:10:37.004Z,9.23
2019-05-10T03:13:06.097Z,10.13
2019-05-10T03:15:38.492Z,9.27
2019-05-10T03:18:07.877Z,10.20
2019-05-10T03:20:38.891Z,9.20
2019-05-10T03:23:10.571Z,9.87
2019-05-10T03:25:39.765Z,10.40
2019-05-10T03:28:08.711Z,10.40
2019-05-10T03:30:37.615Z,11.50
2019-05-10T03:33:06.396Z,10.83
2019-05-10T03:35:35.161Z,10.30
2019-05-10T03:38:03.941Z,10.83
2019-05-10T03:40:32.729Z,10.93
2019-05-10T03:43:01.588Z,11.43
2019-05-10T03:45:30.689Z,11.50
2019-05-10T03:47:59.776Z,11.43
2019-05-10T03:50:28.641Z,12.43
2019-05-10T03:52:57.869Z,12.90
2019-05-10T03:55:26.692Z,12.83
2019-05-10T03:57:55.562Z,13.20
2019-05-10T04:00:24.584Z,13.53
2019-05-10T04:02:53.453Z,14.20
2019-05-10T04:05:22.313Z,14.13
2019-05-10T04:07:51.418Z,14.27
2019-05-10T04:10:21.084Z,14.80
2019-05-10T04:12:50.018Z,14.80
2019-05-10T04:15:19.216Z,14.70
2019-05-10T04:17:50.351Z,15.77
2019-05-10T04:20:18.944Z,15.47
2019-05-10T04:22:47.726Z,15.50
2019-05-10T04:25:16.983Z,15.63
2019-05-10T04:27:45.850Z,15.57
2019-05-10T04:30:15.224Z,15.33
2019-05-10T04:32:44.095Z,15.37
2019-05-10T04:35:13.409Z,15.37
2019-05-10T04:37:42.510Z,16.20
2019-05-10T04:40:11.536Z,15.60
2019-05-10T04:42:41.003Z,16.07
2019-05-10T04:45:10.179Z,16.47
2019-05-10T04:47:39.342Z,15.20
2019-05-10T04:50:08.485Z,15.00
2019-05-10T04:52:37.656Z,15.50
2019-05-10T04:55:06.889Z,14.67
2019-05-10T04:57:49.886Z,14.63
2019-05-10T05:00:08.476Z,14.57
2019-05-10T05:02:37.401Z,14.20
2019-05-10T05:05:07.639Z,13.30
2019-05-10T05:07:36.460Z,12.43
2019-05-10T05:10:06.203Z,11.87
2019-05-10T05:12:34.974Z,11.00
2019-05-10T05:15:04.092Z,11.77
2019-05-10T05:17:32.866Z,9.33
2019-05-10T05:20:02.268Z,9.70
2019-05-10T05:22:31.469Z,9.43
2019-05-10T05:25:01.532Z,9.13
2019-05-10T05:27:31.036Z,7.87
2019-05-10T05:29:59.811Z,8.03
2019-05-10T05:32:28.584Z,8.27
2019-05-10T05:34:57.745Z,8.07
2019-05-10T05:37:26.796Z,7.03
2019-05-10T05:39:55.927Z,7.63
2019-05-10T05:42:27.989Z,6.83
2019-05-10T05:44:55.274Z,6.27
2019-05-10T05:47:24.056Z,7.17
2019-05-10T05:49:53.092Z,6.73
2019-05-10T05:52:21.850Z,7.60
2019-05-10T05:54:52.857Z,7.43
2019-05-10T05:57:22.258Z,7.43
2019-05-10T05:59:57.340Z,7.00
2019-05-10T06:02:23.018Z,7.33
2019-05-10T06:04:51.911Z,7.27
2019-05-10T06:07:20.693Z,7.07
2019-05-10T06:09:49.573Z,7.03
2019-05-10T06:12:18.689Z,7.30
2019-05-10T06:14:49.986Z,7.77
2019-05-10T06:17:23.556Z,7.23
2019-05-10T06:19:49.121Z,7.27
2019-05-10T06:22:17.884Z,7.77
2019-05-10T06:24:52.293Z,6.63
2019-05-10T06:27:17.243Z,7.30
2019-05-10T06:29:46.031Z,7.23
2019-05-10T06:32:14.836Z,6.93
2019-05-10T06:34:43.626Z,6.50
2019-05-10T06:37:12.813Z,5.80
2019-05-10T06:39:41.587Z,6.70
2019-05-10T06:42:10.375Z,6.40
2019-05-10T06:44:39.476Z,7.30
2019-05-10T06:47:11.174Z,6.90
2019-05-10T06:49:41.651Z,5.97
2019-05-10T06:52:09.901Z,7.43
2019-05-10T06:54:38.667Z,6.80
2019-05-10T06:57:11.157Z,7.17
2019-05-10T06:59:38.249Z,6.77
2019-05-10T07:02:07.332Z,6.90
2019-05-10T07:04:40.778Z,6.53
2019-05-10T07:07:09.704Z,6.30
2019-05-10T07:10:01.475Z,6.70
2019-05-10T07:12:09.438Z,5.83
2019-05-10T07:14:45.526Z,6.17
2019-05-10T07:17:09.532Z,6.23
2019-05-10T07:19:42.037Z,6.30
2019-05-10T07:22:09.115Z,5.67
2019-05-10T07:24:37.912Z,5.67
2019-05-10T07:27:07.011Z,5.70
2019-05-10T07:29:42.727Z,6.50
2019-05-10T07:32:06.768Z,5.53
2019-05-10T07:34:35.549Z,6.07
2019-05-10T07:37:04.505Z,6.17
2019-05-10T07:39:33.363Z,5.83
2019-05-10T07:42:06.531Z,5.70
2019-05-10T07:44:32.951Z,5.60
2019-05-10T07:47:01.749Z,4.90
2019-05-10T07:49:32.502Z,5.60
2019-05-10T07:52:02.782Z,5.23
2019-05-10T07:54:37.409Z,4.70
2019-05-10T07:57:02.671Z,5.00
2019-05-10T07:59:42.010Z,4.53
2019-05-10T08:02:05.765Z,5.10
2019-05-10T08:04:33.678Z,4.73
2019-05-10T08:07:02.597Z,4.83
2019-05-10T08:09:31.814Z,4.33
2019-05-10T08:12:05.054Z,4.37
2019-05-10T08:14:31.523Z,4.50
2019-05-10T08:17:05.878Z,4.60
2019-05-10T08:19:32.834Z,4.20
2019-05-10T08:22:04.319Z,4.57
2019-05-10T08:24:35.472Z,4.10
2019-05-10T08:27:07.938Z,3.80
2019-05-10T08:29:33.459Z,4.27
2019-05-10T08:32:02.992Z,4.23
2019-05-10T08:34:35.574Z,4.33
2019-05-10T08:37:02.583Z,5.00
2019-05-10T08:39:35.280Z,5.00
2019-05-10T08:42:19.521Z,4.97
2019-05-10T08:44:32.851Z,5.13
2019-05-10T08:47:02.235Z,5.13
2019-05-10T08:49:42.424Z,5.30
2019-05-10T08:52:02.931Z,5.20
2019-05-10T08:54:32.829Z,5.67
2019-05-10T08:57:05.332Z,5.40
2019-05-10T08:59:33.979Z,5.20
2019-05-10T09:02:02.980Z,5.33
2019-05-10T09:04:42.214Z,4.77
2019-05-10T09:07:02.879Z,5.73
2019-05-10T09:09:33.777Z,4.53
2019-05-10T09:12:07.557Z,5.23
2019-05-10T09:14:33.459Z,5.27
2019-05-10T09:17:04.373Z,4.83
2019-05-10T09:19:40.520Z,5.50
2019-05-10T09:22:04.015Z,5.27
2019-05-10T09:24:34.969Z,5.93
2019-05-10T09:27:03.684Z,5.80
2019-05-10T09:29:37.282Z,6.77
2019-05-10T09:32:06.235Z,6.17
2019-05-10T09:34:33.987Z,6.53
2019-05-10T09:37:08.125Z,6.90
2019-05-10T09:39:34.313Z,6.20
2019-05-10T09:42:07.952Z,6.23
2019-05-10T09:44:33.691Z,6.20
2019-05-10T09:47:04.016Z,6.37
2019-05-10T09:49:33.560Z,6.70
2019-05-10T09:52:04.531Z,6.80
2019-05-10T09:54:33.651Z,7.10
2019-05-10T09:57:02.993Z,6.93
2019-05-10T09:59:32.096Z,6.83
2019-05-10T10:02:04.987Z,7.73
2019-05-10T10:04:32.024Z,7.10
2019-05-10T10:07:00.794Z,7.47
2019-05-10T10:09:34.860Z,7.20
2019-05-10T10:12:03.067Z,6.87
2019-05-10T10:14:38.031Z,6.70
2019-05-10T10:17:03.229Z,7.70
2019-05-10T10:19:32.240Z,6.83
2019-05-10T10:22:05.445Z,6.03
2019-05-10T10:24:31.828Z,6.03
2019-05-10T10:27:00.857Z,5.87
2019-05-10T10:29:34.052Z,4.47
2019-05-10T10:32:00.489Z,4.53
2019-05-10T10:34:32.684Z,4.77
2019-05-10T10:37:00.096Z,5.07
2019-05-10T10:39:29.305Z,4.40
2019-05-10T10:42:02.550Z,4.53
2019-05-10T10:44:28.917Z,5.73
2019-05-10T10:46:58.267Z,4.23
2019-05-10T10:49:30.800Z,5.40
2019-05-10T10:51:57.943Z,4.47
2019-05-10T10:54:31.023Z,4.33
2019-05-10T10:56:59.542Z,4.67
2019-05-10T10:59:27.997Z,4.27
2019-05-10T11:02:25.303Z,4.37
2019-05-10T11:04:27.621Z,4.00
2019-05-10T11:07:09.192Z,3.97
2019-05-10T11:09:27.239Z,3.33
2019-05-10T11:11:56.261Z,3.90
2019-05-10T11:14:25.072Z,4.00
2019-05-10T11:16:57.056Z,3.80
2019-05-10T11:19:24.707Z,3.63
2019-05-10T11:21:53.465Z,3.53
2019-05-10T11:24:22.871Z,3.37
2019-05-10T11:26:52.424Z,3.33
2019-05-10T11:29:26.284Z,4.17
2019-05-10T11:32:11.048Z,3.57
2019-05-10T11:34:22.490Z,4.20
2019-05-10T11:36:51.604Z,4.13
2019-05-10T11:39:25.974Z,4.20
2019-05-10T11:41:52.787Z,4.57
2019-05-10T11:44:23.940Z,3.60
2019-05-10T11:46:52.544Z,3.50
2019-05-10T11:49:21.639Z,3.70
2019-05-10T11:51:54.835Z,3.33
2019-05-10T11:54:21.640Z,3.07
2019-05-10T11:56:52.250Z,3.23
2019-05-10T11:59:21.897Z,3.13
2019-05-10T12:01:58.039Z,3.10
2019-05-10T12:04:28.990Z,3.07
2019-05-10T12:06:51.864Z,2.83
2019-05-10T12:09:24.191Z,3.03
2019-05-10T12:11:56.097Z,2.70
2019-05-10T12:14:22.102Z,2.47
2019-05-10T12:16:54.550Z,3.13
2019-05-10T12:19:22.049Z,2.70
2019-05-10T12:21:55.588Z,2.93
2019-05-10T12:24:38.995Z,2.70
2019-05-10T12:27:18.712Z,2.90
2019-05-10T12:29:22.609Z,2.67
2019-05-10T12:31:55.051Z,2.47
2019-05-10T12:34:22.205Z,2.97
2019-05-10T12:36:51.914Z,2.53
2019-05-10T12:39:21.523Z,2.33
2019-05-10T12:41:53.106Z,2.73
2019-05-10T12:44:20.937Z,2.40
2019-05-10T12:46:50.938Z,2.73
2019-05-10T12:49:21.443Z,2.57
2019-05-10T12:51:51.396Z,2.57
2019-05-10T12:54:23.703Z,2.83
2019-05-10T12:56:51.494Z,2.30
2019-05-10T12:59:20.574Z,2.40
2019-05-10T13:01:49.351Z,3.20
2019-05-10T13:04:18.111Z,4.10
2019-05-10T13:06:47.279Z,3.80
2019-05-10T13:09:16.035Z,4.30
2019-05-10T13:11:44.809Z,3.90
2019-05-10T13:14:13.929Z,4.47
2019-05-10T13:16:43.103Z,4.03
2019-05-10T13:19:14.189Z,3.83
2019-05-10T13:21:42.351Z,4.07
2019-05-10T13:24:11.436Z,3.57
2019-05-10T13:26:40.201Z,3.27
2019-05-10T13:29:10.565Z,3.47
2019-05-10T13:31:42.987Z,3.00
2019-05-10T13:34:10.229Z,2.80
2019-05-10T13:36:39.300Z,2.77
2019-05-10T13:39:08.646Z,3.20
2019-05-10T13:41:37.761Z,4.00
2019-05-10T13:44:06.620Z,3.50
2019-05-10T13:46:35.455Z,3.10
2019-05-10T13:49:04.545Z,3.73
2019-05-10T13:51:33.723Z,3.30
2019-05-10T13:54:05.171Z,3.30
2019-05-10T13:56:33.315Z,3.40
2019-05-10T13:59:13.922Z,3.10
2019-05-10T14:01:32.853Z,2.97
2019-05-10T14:04:03.471Z,3.00
2019-05-10T14:06:32.394Z,2.60
2019-05-10T14:09:01.490Z,2.43
2019-05-10T14:11:34.271Z,2.30
2019-05-10T14:14:01.013Z,2.50
2019-05-10T14:16:30.119Z,2.60
2019-05-10T14:18:59.331Z,2.37
2019-05-10T14:21:28.401Z,2.77
2019-05-10T14:23:57.228Z,2.00
2019-05-10T14:26:26.127Z,2.10
2019-05-10T14:28:54.891Z,2.13
2019-05-10T14:31:23.967Z,2.30
2019-05-10T14:36:23.791Z,2.00
2019-05-10T14:38:56.028Z,2.10
2019-05-10T14:41:23.118Z,1.63
2019-05-10T14:43:52.203Z,1.90
2019-05-10T14:46:21.295Z,2.00
2019-05-10T14:48:50.129Z,2.03
2019-05-10T14:51:18.924Z,1.90
2019-05-10T14:53:47.703Z,2.60
2019-05-10T14:56:16.911Z,2.60
2019-05-10T14:58:46.275Z,2.00
2019-05-10T15:01:15.083Z,2.40
2019-05-10T15:03:45.880Z,2.17
2019-05-10T15:06:15.034Z,2.10
2019-05-10T15:08:43.799Z,2.53
2019-05-10T15:11:13.186Z,2.00
2019-05-10T15:13:41.936Z,3.00
2019-05-10T15:16:13.173Z,2.57
2019-05-10T15:18:41.997Z,2.87
2019-05-10T15:21:10.919Z,2.90
2019-05-10T15:23:40.192Z,2.70
2019-05-10T15:26:11.812Z,3.10
2019-05-10T15:28:42.074Z,2.40
2019-05-10T15:31:10.587Z,2.30
2019-05-10T15:33:39.427Z,2.40
2019-05-10T15:36:08.363Z,2.37
2019-05-10T15:38:40.458Z,3.03
2019-05-10T15:41:07.930Z,3.17
2019-05-10T15:43:36.708Z,3.30
2019-05-10T15:46:06.045Z,2.93
2019-05-10T15:48:36.625Z,3.10
2019-05-10T15:51:05.706Z,2.80
2019-05-10T15:53:35.215Z,2.90
2019-05-10T15:56:05.548Z,3.10
2019-05-10T15:58:36.144Z,2.77
2019-05-10T16:01:05.840Z,3.20
2019-05-10T16:03:34.942Z,3.20
2019-05-10T16:06:04.227Z,3.03
2019-05-10T16:08:33.029Z,3.30
2019-05-10T16:11:01.881Z,2.93
2019-05-10T16:13:30.972Z,3.23
2019-05-10T16:15:59.733Z,2.80
2019-05-10T16:18:33.285Z,2.63
2019-05-10T16:20:59.524Z,2.50
2019-05-10T16:23:28.304Z,3.07
2019-05-10T16:25:57.403Z,2.57
2019-05-10T16:28:26.809Z,2.70
2019-05-10T16:30:55.581Z,3.27
2019-05-10T16:33:24.363Z,2.90
2019-05-10T16:35:53.426Z,3.23
2019-05-10T16:38:22.228Z,3.30
2019-05-10T16:40:57.992Z,5.90
2019-05-10T16:43:24.664Z,4.90
2019-05-10T16:45:52.420Z,5.00
2019-05-10T16:48:21.631Z,3.00
2019-05-10T16:50:50.696Z,3.10
2019-05-10T16:53:19.466Z,3.00
2019-05-10T16:55:48.275Z,2.97
2019-05-10T16:58:18.008Z,3.70
2019-05-10T17:00:48.104Z,3.30
2019-05-10T17:03:18.432Z,3.10
2019-05-10T17:05:53.503Z,3.27
2019-05-10T17:08:18.425Z,3.00
2019-05-10T17:10:47.579Z,3.30
2019-05-10T17:13:16.352Z,3.00
2019-05-10T17:16:04.374Z,3.10
2019-05-10T17:18:33.180Z,3.80
2019-05-10T17:21:01.961Z,3.57
2019-05-10T17:23:30.750Z,3.17
2019-05-10T17:26:00.149Z,3.50
2019-05-10T17:28:29.456Z,3.23
2019-05-10T17:31:06.995Z,3.17
2019-05-10T17:33:30.295Z,3.40
2019-05-10T17:36:08.023Z,3.20
2019-05-10T17:38:31.700Z,2.77
2019-05-10T17:41:00.398Z,3.33
2019-05-10T17:43:29.200Z,3.10
2019-05-10T17:45:57.992Z,3.53
2019-05-10T17:48:26.837Z,3.23
2019-05-10T17:50:55.636Z,2.90
2019-05-10T17:53:24.809Z,3.20
2019-05-10T17:55:56.082Z,3.27
2019-05-10T17:58:27.854Z,2.80
2019-05-10T18:00:54.728Z,3.03
2019-05-10T18:03:23.845Z,2.80
2019-05-10T18:05:53.478Z,5.07
2019-05-10T18:08:22.612Z,5.17
2019-05-10T18:10:57.176Z,5.20
2019-05-10T18:13:22.200Z,5.43
2019-05-10T18:15:51.242Z,4.80
2019-05-10T18:18:20.016Z,5.03
2019-05-10T18:20:49.093Z,4.90
2019-05-10T18:23:21.443Z,5.50
2019-05-10T18:25:52.547Z,5.23
2019-05-10T18:28:21.447Z,4.90
2019-05-10T18:30:50.362Z,5.93
2019-05-10T18:33:19.216Z,5.73
2019-05-10T18:35:53.017Z,5.13
2019-05-10T18:38:19.272Z,5.13
2019-05-10T18:40:48.331Z,4.93
2019-05-10T18:43:17.121Z,5.40
2019-05-10T18:45:45.886Z,5.40
2019-05-10T18:48:15.371Z,5.47
2019-05-10T18:50:45.453Z,5.37
2019-05-10T18:53:15.405Z,5.73
2019-05-10T18:55:44.192Z,5.33
2019-05-10T18:58:12.964Z,5.27
2019-05-10T19:00:41.800Z,4.97
2019-05-10T19:03:10.594Z,5.47
2019-05-10T19:05:39.975Z,5.10
2019-05-10T19:08:09.127Z,5.20
2019-05-10T19:10:37.906Z,5.07
2019-05-10T19:13:07.150Z,4.77
2019-05-10T19:15:36.828Z,5.33
2019-05-10T19:18:06.028Z,5.70
2019-05-10T19:20:35.435Z,6.17
2019-05-10T19:23:05.534Z,6.00
2019-05-10T19:25:37.598Z,6.07
2019-05-10T19:28:05.656Z,5.90
2019-05-10T19:30:34.520Z,6.23
2019-05-10T19:33:03.273Z,6.03
2019-05-10T19:35:35.800Z,6.90
2019-05-10T19:38:03.215Z,6.63
2019-05-10T19:40:32.260Z,6.00
2019-05-10T19:43:01.100Z,6.30
2019-05-10T19:45:31.210Z,6.37
2019-05-10T19:48:00.140Z,6.63
2019-05-10T19:50:33.190Z,6.90
2019-05-10T19:53:03.963Z,7.67
2019-05-10T19:55:51.478Z,8.07
2019-05-10T19:58:20.124Z,7.63
2019-05-10T20:00:49.267Z,7.77
2019-05-10T20:03:18.116Z,7.77
2019-05-10T20:05:46.928Z,7.27
2019-05-10T20:08:15.700Z,6.97
2019-05-10T20:10:44.879Z,6.63
2019-05-10T20:13:13.727Z,6.23
2019-05-10T20:15:42.526Z,5.77
2019-05-10T20:18:11.964Z,5.70
2019-05-10T20:20:40.801Z,5.50
2019-05-10T20:23:09.562Z,4.87
2019-05-10T20:25:38.333Z,5.10
2019-05-10T20:28:07.105Z,5.10
2019-05-10T20:30:35.892Z,5.47
2019-05-10T20:33:04.671Z,5.63
2019-05-10T20:35:33.916Z,5.43
2019-05-10T20:38:02.816Z,5.40
2019-05-10T20:40:31.747Z,5.67
2019-05-10T20:43:00.869Z,5.13
2019-05-10T20:45:29.667Z,6.30
2019-05-10T20:47:58.751Z,5.90
2019-05-10T20:50:27.668Z,6.70
2019-05-10T20:52:56.736Z,6.23
2019-05-10T20:55:25.937Z,6.27
2019-05-10T20:57:55.037Z,6.70
2019-05-10T21:00:24.364Z,6.10
2019-05-10T21:02:53.276Z,6.13
2019-05-10T21:05:22.035Z,6.67
2019-05-10T21:07:50.894Z,6.50
2019-05-10T21:10:19.660Z,7.60
2019-05-10T21:12:48.437Z,6.80
2019-05-10T21:15:17.344Z,6.70
2019-05-10T21:17:46.464Z,7.20
2019-05-10T21:20:15.305Z,6.90
2019-05-10T21:22:44.076Z,7.10
2019-05-10T21:25:13.203Z,7.60
2019-05-10T21:27:41.974Z,7.50
2019-05-10T21:30:10.745Z,7.37
2019-05-10T21:32:39.528Z,7.00
2019-05-10T21:35:08.431Z,7.27
2019-05-10T21:37:37.224Z,7.23
2019-05-10T21:40:06.288Z,7.07
2019-05-10T21:42:35.370Z,6.93
2019-05-10T21:45:04.325Z,6.70
2019-05-10T21:47:33.372Z,6.93
2019-05-10T21:50:02.143Z,7.20
2019-05-10T21:52:30.931Z,7.20
2019-05-10T21:54:59.696Z,7.23
2019-05-10T21:57:28.913Z,7.23
2019-05-10T21:59:57.679Z,7.60
2019-05-10T22:02:27.133Z,7.67
2019-05-10T22:04:55.904Z,8.23
2019-05-10T22:07:24.679Z,7.97
2019-05-10T22:09:53.775Z,8.93
2019-05-10T22:12:22.587Z,8.07
2019-05-10T22:14:51.608Z,7.57
2019-05-10T22:17:20.395Z,7.00
2019-05-10T22:19:49.159Z,7.60
2019-05-10T22:22:18.231Z,7.83
2019-05-10T22:24:47.240Z,7.40
2019-05-10T22:27:16.033Z,7.73
2019-05-10T22:29:44.805Z,7.13
2019-05-10T22:32:13.910Z,7.53
2019-05-10T22:34:42.739Z,7.53
2019-05-10T22:37:11.510Z,8.00
2019-05-10T22:39:40.272Z,8.47
2019-05-10T22:42:09.069Z,8.80
2019-05-10T22:44:38.165Z,8.83
2019-05-10T22:47:07.238Z,9.07
2019-05-10T22:49:36.088Z,9.20
2019-05-10T22:52:05.224Z,9.00
2019-05-10T22:54:34.273Z,8.97
2019-05-10T22:57:03.058Z,8.80
2019-05-10T22:59:31.900Z,8.60
2019-05-10T23:02:00.693Z,9.10
2019-05-10T23:04:29.774Z,9.90
2019-05-10T23:06:59.189Z,10.57
2019-05-10T23:09:27.963Z,9.37
2019-05-10T23:11:57.067Z,10.43
2019-05-10T23:14:26.107Z,10.10
2019-05-10T23:16:54.884Z,9.43
2019-05-10T23:19:23.660Z,10.37
2019-05-10T23:21:52.712Z,10.50
2019-05-10T23:24:28.105Z,10.60
2019-05-10T23:26:56.866Z,10.00
2019-05-10T23:29:25.656Z,10.20
2019-05-10T23:31:54.428Z,10.20
2019-05-10T23:34:23.593Z,10.57
2019-05-10T23:36:52.355Z,10.70
2019-05-10T23:39:21.633Z,10.60
2019-05-10T23:41:50.420Z,9.50
2019-05-10T23:44:19.201Z,10.33
2019-05-10T23:46:47.978Z,11.00
2019-05-10T23:49:16.763Z,10.73
2019-05-10T23:51:45.535Z,11.10
2019-05-10T23:54:14.636Z,11.17
2019-05-10T23:56:44.030Z,10.70
2019-05-10T23:59:12.912Z,11.03
